createdAt,value
2019-03-12T00:01:46.523Z,5.12
2019-03-12T00:04:13.843Z,5.15
2019-03-12T00:06:41.193Z,6.30
2019-03-12T00:09:08.781Z,4.20
2019-03-12T00:11:36.077Z,4.22
2019-03-12T00:14:03.351Z,4.95
2019-03-12T00:16:30.632Z,5.30
2019-03-12T00:18:57.979Z,4.33
2019-03-12T00:21:25.275Z,5.33
2019-03-12T00:23:52.643Z,4.60
2019-03-12T00:26:19.951Z,4.90
2019-03-12T00:28:47.233Z,4.90
2019-03-12T00:31:14.527Z,5.25
2019-03-12T00:33:41.830Z,5.80
2019-03-12T00:36:09.115Z,5.67
2019-03-12T00:38:36.405Z,5.00
2019-03-12T00:41:03.667Z,4.85
2019-03-12T00:43:30.977Z,4.30
2019-03-12T00:45:58.246Z,4.67
2019-03-12T00:48:25.531Z,5.85
2019-03-12T00:50:52.804Z,5.00
2019-03-12T00:53:20.075Z,5.12
2019-03-12T00:55:47.371Z,4.92
2019-03-12T00:58:14.647Z,5.35
2019-03-12T01:00:41.930Z,5.50
2019-03-12T01:03:09.207Z,5.45
2019-03-12T01:05:36.500Z,5.20
2019-03-12T01:08:03.831Z,5.05
2019-03-12T01:10:31.158Z,5.00
2019-03-12T01:12:58.455Z,5.17
2019-03-12T01:15:25.750Z,6.55
2019-03-12T01:17:53.019Z,6.47
2019-03-12T01:20:20.471Z,6.40
2019-03-12T01:22:47.744Z,5.37
2019-03-12T01:25:15.033Z,6.08
2019-03-12T01:27:42.382Z,6.08
2019-03-12T01:30:11.058Z,6.78
2019-03-12T01:32:38.394Z,5.90
2019-03-12T01:35:06.444Z,6.25
2019-03-12T01:37:33.726Z,5.87
2019-03-12T01:40:01.000Z,7.33
2019-03-12T01:42:28.282Z,5.50
2019-03-12T01:44:55.588Z,6.33
2019-03-12T01:47:22.883Z,6.62
2019-03-12T01:49:50.348Z,7.05
2019-03-12T01:52:17.635Z,6.70
2019-03-12T01:54:44.908Z,6.15
2019-03-12T01:57:12.184Z,5.35
2019-03-12T01:59:39.462Z,7.00
2019-03-12T02:02:06.772Z,5.62
2019-03-12T02:04:34.135Z,5.65
2019-03-12T02:07:01.500Z,5.95
2019-03-12T02:09:29.720Z,6.05
2019-03-12T02:11:57.012Z,5.67
2019-03-12T02:14:25.500Z,6.37
2019-03-12T02:16:52.840Z,6.35
2019-03-12T02:19:20.144Z,6.85
2019-03-12T02:21:47.426Z,6.10
2019-03-12T02:24:14.720Z,5.75
2019-03-12T02:26:42.002Z,5.42
2019-03-12T02:29:09.290Z,5.50
2019-03-12T02:31:36.646Z,6.30
2019-03-12T02:34:04.015Z,6.03
2019-03-12T02:36:31.403Z,6.22
2019-03-12T02:38:58.745Z,6.10
2019-03-12T02:41:26.139Z,6.65
2019-03-12T02:43:53.417Z,5.75
2019-03-12T02:46:20.715Z,6.05
2019-03-12T02:48:48.001Z,5.60
2019-03-12T02:51:15.275Z,5.65
2019-03-12T02:53:42.575Z,5.28
2019-03-12T02:56:09.856Z,6.53
2019-03-12T02:58:37.167Z,5.03
2019-03-12T03:01:04.514Z,5.22
2019-03-12T03:03:31.821Z,5.05
2019-03-12T03:06:00.745Z,5.83
2019-03-12T03:08:32.661Z,5.10
2019-03-12T03:10:59.945Z,4.90
2019-03-12T03:13:27.227Z,5.80
2019-03-12T03:15:54.514Z,6.58
2019-03-12T03:18:21.815Z,4.70
2019-03-12T03:20:49.117Z,5.20
2019-03-12T03:23:16.417Z,4.80
2019-03-12T03:25:43.770Z,5.80
2019-03-12T03:28:11.051Z,4.90
2019-03-12T03:30:38.335Z,5.53
2019-03-12T03:33:05.900Z,6.05
2019-03-12T03:35:33.328Z,5.20
2019-03-12T03:38:00.738Z,6.03
2019-03-12T03:40:28.097Z,5.83
2019-03-12T03:42:55.451Z,5.60
2019-03-12T03:45:22.890Z,6.55
2019-03-12T03:47:50.369Z,5.97
2019-03-12T03:50:17.946Z,7.22
2019-03-12T03:52:45.275Z,5.80
2019-03-12T03:55:14.184Z,6.20
2019-03-12T03:57:41.482Z,6.20
2019-03-12T04:00:10.706Z,6.20
2019-03-12T04:02:38.006Z,6.40
2019-03-12T04:05:05.661Z,6.70
2019-03-12T04:07:32.960Z,5.87
2019-03-12T04:10:00.319Z,6.90
2019-03-12T04:12:27.689Z,7.50
2019-03-12T04:14:55.044Z,6.30
2019-03-12T04:17:22.363Z,6.47
2019-03-12T04:19:49.676Z,5.95
2019-03-12T04:22:17.034Z,6.25
2019-03-12T04:24:44.407Z,6.80
2019-03-12T04:27:11.689Z,6.15
2019-03-12T04:29:39.047Z,6.17
2019-03-12T04:32:06.348Z,7.10
2019-03-12T04:34:33.634Z,6.12
2019-03-12T04:37:00.924Z,6.55
2019-03-12T04:39:28.216Z,6.85
2019-03-12T04:41:55.572Z,6.70
2019-03-12T04:44:22.868Z,6.58
2019-03-12T04:46:50.144Z,7.03
2019-03-12T04:49:17.454Z,7.33
2019-03-12T04:51:44.754Z,6.78
2019-03-12T04:54:12.031Z,7.15
2019-03-12T04:56:39.323Z,9.13
2019-03-12T04:59:06.624Z,7.92
2019-03-12T05:01:33.928Z,8.85
2019-03-12T05:06:35.875Z,8.05
2019-03-12T05:09:05.403Z,8.65
2019-03-12T05:11:32.742Z,9.85
2019-03-12T05:14:16.647Z,12.55
2019-03-12T05:16:44.000Z,9.38
2019-03-12T05:19:11.387Z,9.60
2019-03-12T05:21:38.760Z,8.78
2019-03-12T05:24:06.246Z,8.98
2019-03-12T05:26:33.703Z,10.72
2019-03-12T05:29:01.148Z,10.88
2019-03-12T05:31:28.523Z,8.40
2019-03-12T05:33:55.886Z,8.00
2019-03-12T05:36:23.347Z,8.60
2019-03-12T05:38:50.695Z,8.70
2019-03-12T05:41:18.080Z,8.00
2019-03-12T05:43:45.418Z,7.95
2019-03-12T05:46:12.776Z,7.22
2019-03-12T05:48:40.083Z,7.67
2019-03-12T05:51:07.432Z,6.50
2019-03-12T05:53:45.316Z,6.87
2019-03-12T05:56:12.607Z,7.40
2019-03-12T05:58:39.912Z,8.28
2019-03-12T06:01:07.234Z,7.05
2019-03-12T06:03:34.552Z,9.18
2019-03-12T06:06:01.894Z,7.75
2019-03-12T06:08:29.233Z,7.53
2019-03-12T06:10:56.522Z,8.88
2019-03-12T06:13:23.842Z,9.03
2019-03-12T06:15:53.260Z,7.47
2019-03-12T06:18:20.511Z,8.40
2019-03-12T06:20:47.799Z,7.90
2019-03-12T06:23:15.484Z,8.68
2019-03-12T06:25:42.820Z,9.05
2019-03-12T06:28:10.136Z,8.53
2019-03-12T06:30:39.044Z,8.70
2019-03-12T06:33:07.978Z,9.53
2019-03-12T06:35:48.516Z,8.50
2019-03-12T06:38:20.236Z,9.73
2019-03-12T06:43:38.906Z,8.73
2019-03-12T06:46:19.982Z,10.10
2019-03-12T06:48:51.871Z,9.18
2019-03-12T06:51:23.918Z,9.88
2019-03-12T06:54:09.138Z,10.40
2019-03-12T06:56:43.844Z,15.05
2019-03-12T06:59:13.546Z,11.80
2019-03-12T07:01:48.167Z,11.15
2019-03-12T07:04:32.980Z,10.32
2019-03-12T07:07:07.018Z,11.45
2019-03-12T07:09:47.092Z,12.63
2019-03-12T07:12:16.034Z,10.70
2019-03-12T07:14:44.960Z,11.50
2019-03-12T07:17:13.894Z,11.12
2019-03-12T07:19:59.090Z,13.15
2019-03-12T07:22:33.730Z,13.85
2019-03-12T07:25:05.188Z,10.82
2019-03-12T07:27:52.301Z,11.35
2019-03-12T07:30:37.118Z,13.48
2019-03-12T07:33:08.963Z,12.35
2019-03-12T07:35:47.788Z,10.68
2019-03-12T07:38:19.583Z,12.07
2019-03-12T07:40:54.258Z,10.72
2019-03-12T07:43:29.145Z,10.30
2019-03-12T07:46:03.792Z,10.48
2019-03-12T07:48:35.473Z,11.03
2019-03-12T07:51:22.209Z,10.60
2019-03-12T07:54:07.067Z,8.55
2019-03-12T07:56:35.998Z,10.50
2019-03-12T07:59:04.909Z,7.60
2019-03-12T08:01:36.777Z,8.70
2019-03-12T08:04:08.473Z,8.63
2019-03-12T08:06:52.225Z,7.50
2019-03-12T08:09:26.833Z,8.63
2019-03-12T08:11:55.763Z,7.92
2019-03-12T08:14:40.803Z,7.05
2019-03-12T08:17:25.896Z,6.70
2019-03-12T08:19:57.605Z,6.40
2019-03-12T08:22:35.585Z,7.15
2019-03-12T08:25:04.514Z,6.03
2019-03-12T08:27:49.747Z,6.20
2019-03-12T08:30:34.765Z,5.90
2019-03-12T08:33:06.376Z,4.90
2019-03-12T08:35:38.027Z,6.87
2019-03-12T08:38:09.923Z,6.42
2019-03-12T08:40:52.320Z,5.90
2019-03-12T08:43:21.473Z,5.80
2019-03-12T08:45:59.498Z,6.45
2019-03-12T08:48:28.430Z,6.40
2019-03-12T08:51:06.335Z,6.62
2019-03-12T08:53:44.204Z,6.70
2019-03-12T08:56:13.115Z,6.53
2019-03-12T08:58:47.849Z,5.87
2019-03-12T09:01:19.673Z,5.70
2019-03-12T09:04:04.720Z,5.95
2019-03-12T09:06:49.763Z,5.90
2019-03-12T09:09:18.677Z,7.20
2019-03-12T09:11:47.583Z,6.33
2019-03-12T09:14:32.795Z,6.50
2019-03-12T09:17:07.495Z,5.20
2019-03-12T09:19:45.402Z,6.03
2019-03-12T09:22:20.137Z,5.10
2019-03-12T09:25:04.135Z,5.47
2019-03-12T09:27:38.775Z,5.22
2019-03-12T09:30:09.287Z,5.28
2019-03-12T09:32:50.211Z,5.85
2019-03-12T09:35:22.137Z,5.65
2019-03-12T09:37:56.740Z,5.12
2019-03-12T09:40:25.652Z,5.37
2019-03-12T09:43:03.687Z,4.95
2019-03-12T09:45:41.426Z,5.90
2019-03-12T09:48:19.181Z,4.90
2019-03-12T09:50:57.191Z,5.80
2019-03-12T09:53:38.240Z,5.12
2019-03-12T09:56:09.964Z,6.15
2019-03-12T09:58:38.891Z,5.50
2019-03-12T10:01:07.827Z,5.10
2019-03-12T10:03:53.051Z,6.12
2019-03-12T10:06:21.967Z,5.83
2019-03-12T10:09:07.270Z,5.72
2019-03-12T10:11:42.030Z,5.75
2019-03-12T10:14:16.985Z,4.85
2019-03-12T10:16:45.895Z,4.87
2019-03-12T10:19:32.589Z,5.42
2019-03-12T10:22:01.517Z,5.62
2019-03-12T10:24:36.858Z,5.20
2019-03-12T10:27:08.434Z,5.00
2019-03-12T10:29:40.206Z,5.72
2019-03-12T10:32:09.146Z,5.17
2019-03-12T10:34:49.634Z,5.42
2019-03-12T10:37:21.496Z,5.65
2019-03-12T10:40:00.052Z,5.12
2019-03-12T10:42:41.072Z,5.05
2019-03-12T10:45:25.024Z,5.33
2019-03-12T10:47:59.914Z,5.55
2019-03-12T10:50:27.272Z,5.90
2019-03-12T10:52:54.582Z,5.62
2019-03-12T10:55:21.863Z,5.03
2019-03-12T10:57:49.228Z,5.12
2019-03-12T11:00:17.355Z,5.30
2019-03-12T11:02:44.656Z,4.85
2019-03-12T11:05:12.122Z,4.97
2019-03-12T11:07:39.401Z,5.62
2019-03-12T11:10:11.207Z,5.53
2019-03-12T11:12:38.508Z,5.08
2019-03-12T11:15:07.270Z,5.20
2019-03-12T11:17:34.591Z,5.65
2019-03-12T11:20:01.948Z,5.42
2019-03-12T11:22:29.225Z,5.65
2019-03-12T11:24:56.508Z,5.30
2019-03-12T11:27:23.856Z,5.28
2019-03-12T11:29:51.119Z,5.37
2019-03-12T11:32:18.415Z,5.35
2019-03-12T11:34:45.739Z,4.90
2019-03-12T11:37:13.056Z,5.45
2019-03-12T11:39:41.388Z,5.15
2019-03-12T11:42:08.827Z,5.40
2019-03-12T11:44:36.127Z,6.17
2019-03-12T11:47:03.593Z,5.55
2019-03-12T11:49:30.941Z,6.28
2019-03-12T11:51:58.236Z,5.15
2019-03-12T11:54:25.739Z,5.12
2019-03-12T11:56:53.272Z,5.05
2019-03-12T11:59:20.697Z,5.33
2019-03-12T12:01:48.051Z,5.10
2019-03-12T12:04:15.375Z,5.83
2019-03-12T12:06:43.614Z,4.83
2019-03-12T12:09:11.192Z,4.70
2019-03-12T12:11:38.541Z,5.10
2019-03-12T12:14:05.859Z,5.22
2019-03-12T12:16:33.281Z,5.53
2019-03-12T12:19:00.553Z,4.15
2019-03-12T12:21:27.855Z,4.78
2019-03-12T12:23:55.219Z,4.42
2019-03-12T12:26:22.505Z,4.17
2019-03-12T12:28:49.890Z,4.53
2019-03-12T12:31:17.259Z,4.65
2019-03-12T12:33:44.537Z,3.80
2019-03-12T12:36:11.831Z,4.70
2019-03-12T12:38:39.139Z,3.98
2019-03-12T12:41:06.524Z,4.20
2019-03-12T12:43:33.863Z,4.70
2019-03-12T12:46:01.220Z,5.15
2019-03-12T12:48:28.564Z,4.60
2019-03-12T12:51:03.040Z,3.92
2019-03-12T12:53:25.039Z,4.35
2019-03-12T12:55:52.397Z,4.30
2019-03-12T12:58:19.700Z,3.92
2019-03-12T13:00:47.122Z,4.55
2019-03-12T13:03:14.412Z,3.72
2019-03-12T13:05:41.697Z,3.95
2019-03-12T13:08:08.983Z,4.03
2019-03-12T13:10:36.343Z,3.80
2019-03-12T13:13:03.675Z,4.15
2019-03-12T13:15:31.055Z,4.35
2019-03-12T13:17:58.328Z,3.50
2019-03-12T13:20:25.727Z,4.83
2019-03-12T13:22:53.075Z,4.50
2019-03-12T13:25:20.474Z,3.90
2019-03-12T13:27:47.979Z,3.95
2019-03-12T13:30:19.164Z,4.10
2019-03-12T13:32:46.485Z,3.75
2019-03-12T13:35:14.489Z,3.60
2019-03-12T13:37:41.798Z,4.10
2019-03-12T13:40:10.546Z,4.50
2019-03-12T13:42:37.898Z,4.90
2019-03-12T13:45:06.784Z,4.03
2019-03-12T13:47:34.237Z,3.60
2019-03-12T13:50:02.068Z,3.45
2019-03-12T13:52:29.566Z,3.42
2019-03-12T13:54:56.949Z,3.70
2019-03-12T13:57:24.403Z,3.83
2019-03-12T13:59:51.770Z,4.03
2019-03-12T14:02:19.921Z,4.67
2019-03-12T14:04:47.545Z,4.17
2019-03-12T14:07:15.141Z,3.90
2019-03-12T14:09:42.445Z,3.12
2019-03-12T14:12:09.873Z,4.60
2019-03-12T14:14:37.229Z,4.00
2019-03-12T14:17:04.744Z,3.80
2019-03-12T14:19:32.129Z,4.05
2019-03-12T14:22:00.070Z,4.53
2019-03-12T14:24:27.376Z,3.90
2019-03-12T14:26:54.764Z,4.15
2019-03-12T14:29:22.213Z,4.30
2019-03-12T14:31:49.575Z,3.87
2019-03-12T14:34:16.851Z,3.80
2019-03-12T14:36:44.246Z,4.20
2019-03-12T14:39:11.682Z,3.98
2019-03-12T14:41:39.146Z,4.33
2019-03-12T14:44:07.346Z,4.40
2019-03-12T14:46:34.746Z,3.37
2019-03-12T14:49:02.229Z,3.90
2019-03-12T14:51:31.227Z,3.67
2019-03-12T14:54:02.824Z,3.40
2019-03-12T14:56:31.008Z,4.10
2019-03-12T14:58:58.516Z,3.92
2019-03-12T15:01:25.893Z,3.75
2019-03-12T15:03:53.324Z,3.37
2019-03-12T15:06:20.604Z,3.35
2019-03-12T15:08:47.921Z,3.50
2019-03-12T15:11:15.488Z,3.10
2019-03-12T15:13:42.939Z,3.40
2019-03-12T15:16:10.350Z,3.37
2019-03-12T15:18:37.683Z,3.25
2019-03-12T15:21:05.030Z,2.98
2019-03-12T15:23:32.314Z,3.40
2019-03-12T15:25:59.602Z,3.40
2019-03-12T15:28:26.892Z,3.27
2019-03-12T15:30:54.197Z,3.80
2019-03-12T15:33:21.568Z,3.67
2019-03-12T15:35:48.919Z,4.40
2019-03-12T15:38:16.212Z,3.15
2019-03-12T15:40:44.458Z,3.50
2019-03-12T15:43:11.810Z,2.80
2019-03-12T15:45:39.095Z,3.75
2019-03-12T15:48:06.475Z,4.08
2019-03-12T15:50:34.837Z,3.25
2019-03-12T15:53:02.291Z,3.37
2019-03-12T15:55:29.624Z,3.00
2019-03-12T15:57:56.898Z,3.65
2019-03-12T16:00:24.191Z,3.10
2019-03-12T16:02:51.481Z,3.30
2019-03-12T16:05:18.873Z,3.87
2019-03-12T16:07:46.181Z,3.30
2019-03-12T16:10:14.118Z,3.67
2019-03-12T16:12:41.409Z,4.03
2019-03-12T16:15:09.563Z,3.12
2019-03-12T16:17:36.895Z,3.67
2019-03-12T16:20:05.708Z,3.75
2019-03-12T16:22:33.030Z,4.53
2019-03-12T16:25:00.377Z,3.30
2019-03-12T16:27:27.677Z,3.58
2019-03-12T16:29:55.019Z,3.85
2019-03-12T16:32:22.353Z,4.75
2019-03-12T16:34:49.689Z,3.27
2019-03-12T16:37:18.517Z,3.77
2019-03-12T16:39:45.831Z,3.37
2019-03-12T16:42:13.099Z,3.25
2019-03-12T16:44:40.387Z,3.33
2019-03-12T16:47:07.675Z,3.20
2019-03-12T16:49:34.961Z,2.70
2019-03-12T16:52:02.259Z,3.80
2019-03-12T16:54:29.551Z,3.80
2019-03-12T16:56:56.861Z,3.20
2019-03-12T16:59:24.163Z,2.98
2019-03-12T17:01:51.537Z,3.40
2019-03-12T17:04:18.887Z,3.05
2019-03-12T17:06:46.233Z,3.22
2019-03-12T17:09:14.098Z,3.08
2019-03-12T17:11:41.409Z,3.30
2019-03-12T17:14:08.785Z,3.40
2019-03-12T17:16:36.160Z,3.80
2019-03-12T17:19:03.437Z,3.30
2019-03-12T17:21:32.736Z,3.08
2019-03-12T17:24:02.433Z,3.08
2019-03-12T17:26:29.743Z,3.67
2019-03-12T17:28:57.052Z,3.27
2019-03-12T17:31:24.319Z,3.42
2019-03-12T17:33:51.714Z,3.62
2019-03-12T17:36:19.101Z,3.70
2019-03-12T17:38:48.373Z,3.30
2019-03-12T17:41:15.689Z,3.42
2019-03-12T17:43:43.135Z,3.10
2019-03-12T17:46:11.354Z,3.10
2019-03-12T17:48:38.747Z,3.05
2019-03-12T17:51:06.188Z,3.47
2019-03-12T17:53:33.479Z,3.10
2019-03-12T17:56:00.833Z,3.50
2019-03-12T17:58:28.226Z,3.55
2019-03-12T18:00:57.230Z,3.70
2019-03-12T18:03:24.601Z,3.70
2019-03-12T18:05:52.061Z,3.42
2019-03-12T18:08:19.566Z,3.35
2019-03-12T18:10:46.960Z,3.15
2019-03-12T18:13:15.566Z,3.30
2019-03-12T18:15:43.062Z,3.85
2019-03-12T18:18:10.586Z,3.52
2019-03-12T18:20:37.943Z,3.22
2019-03-12T18:23:05.370Z,3.12
2019-03-12T18:25:34.076Z,4.65
2019-03-12T18:28:01.548Z,3.20
2019-03-12T18:30:28.972Z,3.77
2019-03-12T18:32:56.482Z,2.87
2019-03-12T18:35:23.761Z,3.80
2019-03-12T18:37:53.951Z,3.50
2019-03-12T18:40:34.861Z,3.60
2019-03-12T18:43:02.486Z,4.55
2019-03-12T18:45:31.423Z,3.67
2019-03-12T18:47:59.586Z,3.45
2019-03-12T18:50:27.021Z,3.17
2019-03-12T18:52:54.372Z,3.25
2019-03-12T18:55:23.241Z,3.40
2019-03-12T18:57:50.556Z,2.70
2019-03-12T19:00:17.933Z,3.10
2019-03-12T19:02:45.276Z,3.95
2019-03-12T19:05:12.707Z,3.80
2019-03-12T19:07:40.197Z,2.45
2019-03-12T19:10:13.157Z,3.42
2019-03-12T19:12:38.218Z,3.10
2019-03-12T19:15:07.191Z,3.02
2019-03-12T19:17:34.672Z,3.10
2019-03-12T19:20:02.933Z,2.98
2019-03-12T19:22:31.824Z,2.52
2019-03-12T19:24:59.248Z,2.70
2019-03-12T19:27:27.120Z,2.92
2019-03-12T19:29:54.580Z,2.90
2019-03-12T19:32:29.310Z,2.60
2019-03-12T19:34:58.681Z,3.05
2019-03-12T19:37:26.599Z,4.00
2019-03-12T19:39:54.188Z,2.80
2019-03-12T19:42:24.364Z,3.47
2019-03-12T19:44:52.129Z,2.90
2019-03-12T19:47:20.433Z,3.37
2019-03-12T19:49:48.068Z,3.17
2019-03-12T19:52:15.776Z,2.58
2019-03-12T19:54:43.384Z,3.22
2019-03-12T19:57:10.902Z,2.65
2019-03-12T19:59:39.905Z,2.80
2019-03-12T20:02:15.901Z,2.55
2019-03-12T23:11:27.687Z,2.60
2019-03-12T23:13:55.170Z,3.20
2019-03-12T23:16:22.573Z,2.67
2019-03-12T23:18:49.899Z,2.75
2019-03-12T23:21:17.388Z,2.30
2019-03-12T23:23:44.764Z,2.75
2019-03-12T23:26:12.086Z,2.58
2019-03-12T23:28:39.477Z,3.15
2019-03-12T23:31:06.840Z,2.50
2019-03-12T23:33:34.326Z,3.00
2019-03-12T23:36:01.785Z,2.50
2019-03-12T23:38:29.257Z,1.98
2019-03-12T23:40:56.740Z,1.70
2019-03-12T23:43:24.190Z,1.50
2019-03-12T23:45:51.566Z,1.70
2019-03-12T23:48:18.924Z,1.80
2019-03-12T23:50:46.362Z,1.87
2019-03-12T23:53:13.758Z,1.75
2019-03-12T23:55:41.084Z,2.40
2019-03-12T23:58:08.564Z,2.30
